METAR Data
IDs: Format: Raw Decoded Include TAF

Data at: 1947 UTC 13 Nov 2019

METAR for:KSDA (Shenandoah Muni, IA, US)
Text:KSDA 131935Z AUTO 21007KT 10SM CLR 04/M06 A2995 RMK AO2
Temperature: 4.0°C ( 39°F)
Dewpoint: -6.0°C ( 21°F) [RH = 48%]
Pressure (altimeter):29.95 inches Hg (1014.3 mb)
Winds:from the SSW (210 degrees) at 8 MPH (7 knots; 3.6 m/s)
Visibility:10 or more sm (16+ km)
Ceiling:at least 12,000 feet AGL
Clouds:sky clear below 12,000 feet AGL
QC Flag:automated observation with no human augmentation